createdAt,value
2018-11-14T00:00:22.714Z,65.27
2018-11-14T00:02:51.849Z,60.03
2018-11-14T00:05:20.690Z,61.93
2018-11-14T00:07:49.653Z,61.73
2018-11-14T00:10:19.240Z,60.57
2018-11-14T00:12:47.887Z,61.87
2018-11-14T00:15:18.263Z,59.33
2018-11-14T00:17:48.022Z,61.33
2018-11-14T00:20:17.030Z,59.13
2018-11-14T00:22:47.357Z,55.53
2018-11-14T00:25:16.259Z,62.67
2018-11-14T00:27:44.951Z,48.67
2018-11-14T00:30:19.573Z,50.10
2018-11-14T00:32:48.338Z,53.47
2018-11-14T00:35:17.042Z,59.03
2018-11-14T00:37:46.370Z,57.93
2018-11-14T00:40:15.893Z,63.53
2018-11-14T00:42:45.387Z,54.67
2018-11-14T00:45:17.064Z,59.27
2018-11-14T00:47:46.967Z,58.80
2018-11-14T00:50:16.724Z,51.23
2018-11-14T00:52:46.750Z,56.17
2018-11-14T00:55:16.966Z,54.13
2018-11-14T00:57:46.974Z,50.37
2018-11-14T01:00:18.717Z,52.83
2018-11-14T01:02:48.102Z,48.93
2018-11-14T01:05:17.341Z,58.10
2018-11-14T01:07:46.347Z,50.80
2018-11-14T01:10:16.902Z,53.33
2018-11-14T01:12:46.596Z,54.63
2018-11-14T01:15:17.558Z,57.67
2018-11-14T01:17:46.632Z,55.20
2018-11-14T01:20:16.673Z,52.17
2018-11-14T01:22:46.014Z,48.17
2018-11-14T01:25:15.732Z,46.37
2018-11-14T01:27:44.971Z,46.43
2018-11-14T01:30:17.871Z,46.90
2018-11-14T01:32:47.436Z,56.73
2018-11-14T01:35:16.630Z,46.03
2018-11-14T01:37:45.617Z,44.97
2018-11-14T01:40:15.973Z,43.43
2018-11-14T01:42:45.922Z,40.77
2018-11-14T01:45:14.791Z,42.43
2018-11-14T01:47:43.401Z,42.93
2018-11-14T01:50:12.348Z,48.07
2018-11-14T01:52:41.403Z,43.80
2018-11-14T01:55:11.864Z,43.40
2018-11-14T01:57:40.673Z,44.00
2018-11-14T02:00:11.706Z,35.03
2018-11-14T02:02:41.005Z,40.80
2018-11-14T02:05:10.786Z,41.60
2018-11-14T02:07:39.530Z,40.90
2018-11-14T02:10:09.938Z,40.27
2018-11-14T02:12:39.463Z,40.80
2018-11-14T02:15:10.286Z,45.37
2018-11-14T02:17:39.498Z,42.77
2018-11-14T02:20:08.587Z,35.57
2018-11-14T02:22:37.580Z,42.03
2018-11-14T02:25:07.298Z,36.57
2018-11-14T02:27:36.171Z,42.27
2018-11-14T02:30:05.978Z,41.83
2018-11-14T02:32:34.592Z,41.93
2018-11-14T02:35:03.172Z,45.77
2018-11-14T02:37:32.185Z,44.53
2018-11-14T02:40:00.901Z,42.67
2018-11-14T02:42:29.778Z,39.73
2018-11-14T02:44:58.613Z,43.53
2018-11-14T02:47:27.830Z,39.17
2018-11-14T02:49:56.761Z,42.30
2018-11-14T02:52:25.809Z,42.77
2018-11-14T02:54:54.819Z,36.67
2018-11-14T02:57:24.026Z,38.20
2018-11-14T02:59:53.007Z,42.53
2018-11-14T03:02:21.838Z,46.83
2018-11-14T03:04:50.665Z,46.30
2018-11-14T03:07:19.381Z,36.20
2018-11-14T03:09:48.026Z,41.37
2018-11-14T03:12:16.978Z,41.03
2018-11-14T03:14:46.002Z,37.80
2018-11-14T03:17:15.255Z,40.77
2018-11-14T03:19:44.129Z,42.70
2018-11-14T03:22:13.243Z,37.07
2018-11-14T03:24:42.192Z,38.53
2018-11-14T03:27:11.218Z,45.37
2018-11-14T03:29:40.544Z,37.07
2018-11-14T03:32:09.297Z,45.83
2018-11-14T03:34:38.122Z,40.17
2018-11-14T03:37:07.614Z,44.13
2018-11-14T03:39:36.245Z,40.10
2018-11-14T03:42:05.062Z,42.97
2018-11-14T03:44:33.964Z,47.90
2018-11-14T03:47:02.753Z,48.17
2018-11-14T03:49:31.518Z,52.77
2018-11-14T03:52:00.371Z,45.83
2018-11-14T03:54:29.229Z,43.10
2018-11-14T03:56:58.301Z,42.90
2018-11-14T03:59:27.228Z,41.73
2018-11-14T04:01:55.981Z,42.50
2018-11-14T04:04:24.985Z,45.07
2018-11-14T04:06:53.646Z,42.40
2018-11-14T04:09:22.440Z,47.80
2018-11-14T04:11:51.301Z,48.67
2018-11-14T04:14:20.586Z,39.37
2018-11-14T04:16:49.526Z,38.33
2018-11-14T04:19:18.275Z,45.00
2018-11-14T04:21:47.486Z,42.73
2018-11-14T04:24:16.687Z,46.47
2018-11-14T04:26:45.524Z,49.03
2018-11-14T04:29:14.353Z,47.23
2018-11-14T04:31:43.522Z,47.17
2018-11-14T04:34:12.302Z,50.87
2018-11-14T04:36:41.328Z,52.73
2018-11-14T04:39:11.109Z,49.63
2018-11-14T04:41:39.806Z,46.63
2018-11-14T04:44:09.023Z,52.57
2018-11-14T04:46:37.970Z,53.07
2018-11-14T04:49:06.779Z,53.90
2018-11-14T04:51:35.687Z,64.50
2018-11-14T04:54:04.863Z,57.97
2018-11-14T04:56:33.653Z,59.50
2018-11-14T04:59:02.974Z,56.70
2018-11-14T05:01:31.733Z,51.97
2018-11-14T05:04:00.763Z,50.50
2018-11-14T05:06:29.673Z,50.70
2018-11-14T05:08:58.280Z,46.60
2018-11-14T05:11:26.904Z,57.17
2018-11-14T05:13:56.903Z,53.43
2018-11-14T05:16:25.922Z,58.77
2018-11-14T05:18:54.703Z,55.83
2018-11-14T05:21:23.517Z,55.97
2018-11-14T05:23:52.396Z,65.03
2018-11-14T05:26:21.374Z,60.27
2018-11-14T05:28:50.657Z,68.73
2018-11-14T05:31:19.480Z,61.53
2018-11-14T05:33:48.579Z,60.40
2018-11-14T05:36:17.446Z,54.73
2018-11-14T05:38:46.175Z,56.50
2018-11-14T05:41:14.884Z,50.63
2018-11-14T05:43:43.843Z,61.80
2018-11-14T05:46:12.637Z,62.43
2018-11-14T05:48:41.527Z,61.27
2018-11-14T05:51:10.425Z,86.27
2018-11-14T05:53:39.425Z,78.53
2018-11-14T05:56:08.394Z,74.53
2018-11-14T05:58:37.657Z,71.23
2018-11-14T06:01:06.538Z,67.00
2018-11-14T06:03:35.589Z,71.87
2018-11-14T06:06:04.725Z,76.43
2018-11-14T06:08:33.378Z,66.47
2018-11-14T06:11:02.075Z,77.33
2018-11-14T06:13:31.274Z,83.10
2018-11-14T06:16:00.347Z,90.37
2018-11-14T06:18:29.015Z,91.47
2018-11-14T06:20:58.152Z,79.10
2018-11-14T06:23:26.841Z,75.90
2018-11-14T06:25:55.818Z,75.83
2018-11-14T06:28:25.340Z,86.70
2018-11-14T06:30:54.037Z,103.80
2018-11-14T06:33:22.745Z,104.53
2018-11-14T06:35:51.737Z,99.07
2018-11-14T06:38:20.394Z,68.50
2018-11-14T06:40:49.067Z,76.17
2018-11-14T06:43:18.374Z,73.90
2018-11-14T06:45:47.230Z,78.70
2018-11-14T06:48:16.121Z,61.37
2018-11-14T06:50:45.063Z,81.67
2018-11-14T06:53:13.922Z,77.53
2018-11-14T06:55:42.934Z,62.60
2018-11-14T06:58:12.119Z,74.47
2018-11-14T07:00:40.772Z,64.03
2018-11-14T07:03:09.605Z,55.57
2018-11-14T07:05:38.223Z,68.47
2018-11-14T07:08:07.235Z,72.90
2018-11-14T07:10:37.027Z,74.73
2018-11-14T07:13:11.406Z,83.47
2018-11-14T07:15:41.361Z,84.63
2018-11-14T07:18:11.307Z,86.13
2018-11-14T07:20:42.778Z,80.70
2018-11-14T07:23:11.881Z,70.63
2018-11-14T07:25:40.589Z,89.27
2018-11-14T07:28:09.580Z,70.77
2018-11-14T07:30:38.512Z,76.53
2018-11-14T07:33:08.957Z,71.73
2018-11-14T07:35:37.637Z,82.17
2018-11-14T07:38:41.018Z,77.90
2018-11-14T07:41:11.265Z,73.37
2018-11-14T07:43:40.593Z,78.97
2018-11-14T07:46:10.215Z,74.43
2018-11-14T07:48:39.623Z,68.53
2018-11-14T07:51:09.113Z,60.43
2018-11-14T07:53:37.861Z,68.27
2018-11-14T07:56:07.233Z,60.77
2018-11-14T07:58:36.623Z,56.43
2018-11-14T08:01:05.894Z,62.43
2018-11-14T08:03:34.608Z,56.33
2018-11-14T08:06:03.633Z,57.87
2018-11-14T08:08:32.577Z,55.10
2018-11-14T08:11:01.130Z,57.13
2018-11-14T08:13:31.358Z,55.50
2018-11-14T08:16:01.346Z,57.60
2018-11-14T08:18:30.500Z,53.17
2018-11-14T08:21:00.344Z,53.87
2018-11-14T08:23:29.111Z,50.97
2018-11-14T08:25:58.205Z,45.03
2018-11-14T08:28:27.562Z,51.37
2018-11-14T08:30:56.527Z,43.37
2018-11-14T08:33:25.401Z,46.37
2018-11-14T08:35:54.428Z,43.17
2018-11-14T08:38:23.166Z,41.27
2018-11-14T08:40:51.879Z,44.10
2018-11-14T08:43:21.079Z,41.60
2018-11-14T08:45:49.929Z,44.77
2018-11-14T08:48:19.163Z,41.73
2018-11-14T08:50:48.468Z,43.80
2018-11-14T08:53:17.467Z,42.57
2018-11-14T08:55:46.432Z,44.17
2018-11-14T08:58:15.406Z,45.10
2018-11-14T09:00:44.521Z,41.97
2018-11-14T09:03:14.278Z,41.70
2018-11-14T09:05:43.266Z,44.53
2018-11-14T09:08:11.995Z,38.60
2018-11-14T09:10:40.754Z,38.80
2018-11-14T09:13:13.694Z,38.93
2018-11-14T09:15:43.016Z,38.67
2018-11-14T09:18:11.817Z,40.43
2018-11-14T09:20:40.842Z,40.13
2018-11-14T09:23:09.810Z,45.87
2018-11-14T09:25:38.682Z,35.70
2018-11-14T09:28:07.510Z,37.13
2018-11-14T09:30:36.389Z,40.60
2018-11-14T09:33:05.643Z,35.17
2018-11-14T09:35:34.759Z,39.60
2018-11-14T09:38:03.382Z,33.03
2018-11-14T09:40:32.030Z,37.73
2018-11-14T09:43:00.845Z,38.13
2018-11-14T09:45:31.129Z,43.67
2018-11-14T09:47:59.972Z,41.47
2018-11-14T09:50:30.530Z,49.53
2018-11-14T09:53:06.168Z,36.53
2018-11-14T09:55:35.082Z,42.83
2018-11-14T09:58:03.824Z,44.37
2018-11-14T10:00:34.427Z,39.17
2018-11-14T10:03:13.617Z,36.63
2018-11-14T10:05:42.655Z,44.10
2018-11-14T10:08:11.621Z,34.53
2018-11-14T10:10:40.382Z,37.77
2018-11-14T10:13:09.264Z,36.40
2018-11-14T10:15:38.195Z,36.70
2018-11-14T10:18:07.045Z,38.07
2018-11-14T10:20:36.106Z,43.07
2018-11-14T10:23:05.031Z,34.53
2018-11-14T10:25:33.785Z,36.27
2018-11-14T10:28:02.628Z,43.60
2018-11-14T10:30:31.479Z,40.17
2018-11-14T10:33:00.554Z,41.90
2018-11-14T10:35:29.555Z,38.50
2018-11-14T10:37:58.328Z,41.67
2018-11-14T10:40:28.187Z,39.83
2018-11-14T10:42:57.258Z,45.10
2018-11-14T10:45:26.782Z,43.13
2018-11-14T10:47:55.639Z,47.27
2018-11-14T10:50:25.960Z,50.67
2018-11-14T10:52:54.697Z,45.13
2018-11-14T10:55:24.165Z,45.57
2018-11-14T10:57:53.657Z,44.70
2018-11-14T11:00:28.826Z,45.13
2018-11-14T11:03:03.674Z,42.83
2018-11-14T11:05:44.275Z,45.97
2018-11-14T11:08:19.505Z,50.87
2018-11-14T11:11:51.286Z,52.47
2018-11-14T11:14:25.535Z,48.70
2018-11-14T11:16:59.735Z,50.03
2018-11-14T11:19:30.038Z,49.90
2018-11-14T11:21:59.074Z,55.93
2018-11-14T11:24:28.048Z,55.27
2018-11-14T11:26:56.980Z,49.57
2018-11-14T11:29:25.848Z,50.53
2018-11-14T11:31:54.534Z,56.40
2018-11-14T11:34:23.766Z,53.67
2018-11-14T11:36:52.406Z,51.37
2018-11-14T11:39:21.045Z,55.07
2018-11-14T11:41:49.866Z,55.30
2018-11-14T11:44:18.773Z,64.27
2018-11-14T11:46:47.679Z,57.37
2018-11-14T11:49:16.787Z,70.53
2018-11-14T11:51:45.457Z,80.83
2018-11-14T11:54:14.178Z,58.33
2018-11-14T11:56:43.186Z,90.60
2018-11-14T11:59:11.919Z,86.07
2018-11-14T12:01:40.863Z,75.00
2018-11-14T12:04:09.770Z,120.33
2018-11-14T12:06:38.400Z,64.20
2018-11-14T12:09:10.073Z,91.03
2018-11-14T12:11:38.842Z,77.90
2018-11-14T12:14:07.942Z,76.03
2018-11-14T12:16:37.089Z,61.60
2018-11-14T12:19:06.274Z,68.90
2018-11-14T12:21:35.329Z,85.43
2018-11-14T12:24:04.841Z,74.50
2018-11-14T12:26:33.924Z,59.63
2018-11-14T12:29:02.930Z,75.77
2018-11-14T12:31:32.035Z,70.40
2018-11-14T12:34:01.011Z,62.80
2018-11-14T12:36:29.654Z,61.13
2018-11-14T12:38:58.402Z,65.43
2018-11-14T12:41:27.192Z,68.97
2018-11-14T12:43:55.834Z,63.70
2018-11-14T12:46:25.292Z,73.27
2018-11-14T12:48:54.364Z,71.00
2018-11-14T12:51:23.564Z,74.47
2018-11-14T12:53:52.898Z,80.13
2018-11-14T12:56:21.542Z,78.63
2018-11-14T12:58:50.333Z,76.60
2018-11-14T13:01:19.740Z,86.80
2018-11-14T13:03:48.346Z,85.07
2018-11-14T13:06:17.102Z,81.90
2018-11-14T13:08:46.131Z,85.33
2018-11-14T13:11:14.997Z,84.40
2018-11-14T13:13:45.762Z,91.85
2018-11-14T13:16:15.286Z,84.40
2018-11-14T13:18:44.446Z,92.83
2018-11-14T13:21:13.420Z,90.57
2018-11-14T13:23:42.678Z,91.20
2018-11-14T13:26:11.644Z,80.63
2018-11-14T13:28:40.213Z,87.13
2018-11-14T13:31:09.482Z,87.03
2018-11-14T13:33:38.106Z,86.77
2018-11-14T13:36:06.722Z,81.03
2018-11-14T13:38:35.653Z,81.20
2018-11-14T13:41:04.497Z,90.80
2018-11-14T13:43:33.460Z,79.47
2018-11-14T13:46:02.296Z,87.27
2018-11-14T13:48:30.915Z,79.80
2018-11-14T13:50:59.889Z,78.03
2018-11-14T13:53:28.966Z,86.30
2018-11-14T13:55:58.085Z,89.93
2018-11-14T13:58:26.931Z,88.90
2018-11-14T14:00:56.023Z,80.63
2018-11-14T14:03:24.601Z,82.80
2018-11-14T14:05:53.222Z,80.53
2018-11-14T14:08:22.274Z,86.90
2018-11-14T14:10:51.142Z,83.70
2018-11-14T14:13:20.144Z,86.00
2018-11-14T14:15:49.267Z,71.67
2018-11-14T14:18:18.257Z,83.90
2018-11-14T14:20:47.324Z,74.90
2018-11-14T14:23:16.534Z,81.73
2018-11-14T14:25:45.444Z,72.20
2018-11-14T14:28:14.495Z,70.63
2018-11-14T14:30:43.765Z,71.17
2018-11-14T14:33:12.466Z,68.17
2018-11-14T14:35:41.181Z,62.43
2018-11-14T14:38:10.048Z,62.13
2018-11-14T14:40:39.095Z,64.13
2018-11-14T14:43:08.121Z,66.77
2018-11-14T14:45:37.290Z,58.67
2018-11-14T14:48:06.395Z,67.23
2018-11-14T14:50:35.614Z,61.00
2018-11-14T14:53:04.749Z,53.23
2018-11-14T14:55:33.765Z,61.27
2018-11-14T14:58:02.715Z,57.47
2018-11-14T15:00:31.670Z,57.60
2018-11-14T15:03:00.291Z,54.20
2018-11-14T15:05:29.167Z,46.30
2018-11-14T15:07:58.174Z,44.30
2018-11-14T15:10:27.006Z,50.03
2018-11-14T15:12:55.821Z,55.13
2018-11-14T15:15:24.813Z,54.10
2018-11-14T15:17:53.605Z,59.33
2018-11-14T15:20:23.805Z,48.27
2018-11-14T15:22:52.875Z,49.07
2018-11-14T15:25:22.943Z,48.87
2018-11-14T15:27:52.130Z,49.03
2018-11-14T15:30:24.990Z,51.83
2018-11-14T15:32:54.003Z,51.17
2018-11-14T15:35:22.931Z,55.17
2018-11-14T15:37:51.673Z,49.30
2018-11-14T15:40:22.017Z,54.57
2018-11-14T15:42:51.019Z,47.30
2018-11-14T15:45:21.488Z,51.77
2018-11-14T15:47:50.741Z,49.23
2018-11-14T15:50:21.922Z,54.33
2018-11-14T15:52:52.130Z,58.50
2018-11-14T15:55:21.673Z,45.00
2018-11-14T15:57:50.857Z,47.03
2018-11-14T16:00:24.278Z,49.50
2018-11-14T16:02:52.981Z,49.40
2018-11-14T16:05:22.922Z,49.20
2018-11-14T16:07:53.320Z,53.67
2018-11-14T16:10:23.242Z,44.90
2018-11-14T16:12:51.970Z,45.77
2018-11-14T16:15:22.768Z,44.70
2018-11-14T16:17:51.677Z,45.87
2018-11-14T16:20:22.925Z,49.23
2018-11-14T16:22:51.941Z,46.20
2018-11-14T16:25:22.431Z,42.33
2018-11-14T16:27:52.829Z,48.00
2018-11-14T16:30:36.744Z,42.80
2018-11-14T16:33:06.890Z,47.07
2018-11-14T16:35:35.556Z,40.83
2018-11-14T16:38:04.386Z,47.10
2018-11-14T16:40:34.367Z,46.20
2018-11-14T16:43:05.592Z,40.80
2018-11-14T16:45:35.257Z,40.63
2018-11-14T16:48:04.060Z,44.17
2018-11-14T16:50:32.818Z,38.27
2018-11-14T16:53:02.210Z,37.80
2018-11-14T16:55:31.408Z,36.17
2018-11-14T16:58:00.301Z,35.70
2018-11-14T17:00:31.211Z,31.43
2018-11-14T17:03:00.047Z,29.60
2018-11-14T17:05:29.837Z,38.10
2018-11-14T17:07:59.111Z,35.00
2018-11-14T17:10:27.881Z,38.70
2018-11-14T17:12:58.109Z,43.17
2018-11-14T17:15:27.961Z,40.63
2018-11-14T17:17:56.903Z,31.30
2018-11-14T17:20:25.531Z,30.03
2018-11-14T17:22:55.206Z,30.23
2018-11-14T17:25:24.286Z,34.70
2018-11-14T17:27:53.011Z,32.20
2018-11-14T17:30:24.272Z,33.80
2018-11-14T17:32:53.380Z,33.77
2018-11-14T17:35:22.179Z,28.67
2018-11-14T17:37:52.388Z,36.20
2018-11-14T17:40:24.447Z,29.53
2018-11-14T17:42:54.051Z,33.13
2018-11-14T17:45:25.916Z,28.27
2018-11-14T17:47:55.115Z,29.97
2018-11-14T17:50:30.392Z,27.63
2018-11-14T17:53:00.267Z,27.83
2018-11-14T17:55:29.711Z,29.40
2018-11-14T17:57:58.974Z,31.50
2018-11-14T18:00:28.954Z,35.30
2018-11-14T18:02:57.941Z,32.90
2018-11-14T18:05:28.370Z,35.30
2018-11-14T18:07:57.598Z,27.33
2018-11-14T18:10:27.824Z,23.10
2018-11-14T18:12:58.046Z,25.47
2018-11-14T18:15:26.925Z,29.30
2018-11-14T18:17:56.742Z,26.83
2018-11-14T18:20:27.952Z,26.30
2018-11-14T18:22:57.147Z,25.30
2018-11-14T18:25:26.283Z,24.53
2018-11-14T18:27:55.196Z,26.03
2018-11-14T18:30:25.175Z,27.70
2018-11-14T18:32:54.630Z,31.63
2018-11-14T18:35:24.013Z,34.37
2018-11-14T18:37:53.642Z,33.60
2018-11-14T18:40:23.662Z,29.83
2018-11-14T18:42:52.474Z,28.17
2018-11-14T18:45:24.460Z,25.77
2018-11-14T18:47:53.903Z,25.77
2018-11-14T18:50:23.378Z,31.37
2018-11-14T18:52:52.706Z,30.70
2018-11-14T18:55:22.719Z,31.37
2018-11-14T18:57:51.721Z,28.03
2018-11-14T19:00:22.570Z,34.90
2018-11-14T19:02:51.279Z,27.00
2018-11-14T19:05:20.749Z,41.40
2018-11-14T19:07:50.133Z,44.07
2018-11-14T19:10:20.361Z,42.37
2018-11-14T19:12:49.874Z,32.53
2018-11-14T19:15:20.912Z,32.10
2018-11-14T19:17:50.014Z,27.67
2018-11-14T19:20:21.139Z,32.77
2018-11-14T19:22:50.043Z,28.30
2018-11-14T19:25:20.286Z,25.17
2018-11-14T19:27:49.751Z,28.10
2018-11-14T19:30:20.986Z,30.73
2018-11-14T19:32:50.825Z,27.30
2018-11-14T19:35:19.804Z,31.77
2018-11-14T19:37:49.955Z,30.30
2018-11-14T19:40:20.599Z,34.17
2018-11-14T19:42:50.769Z,31.77
2018-11-14T19:45:20.818Z,30.97
2018-11-14T19:47:49.703Z,35.60
2018-11-14T19:50:19.813Z,29.70
2018-11-14T19:52:49.335Z,32.07
2018-11-14T19:55:19.549Z,32.23
2018-11-14T19:57:49.422Z,27.43
2018-11-14T20:00:21.383Z,27.27
2018-11-14T20:02:50.398Z,30.50
2018-11-14T20:05:19.830Z,25.47
2018-11-14T20:07:48.837Z,27.87
2018-11-14T20:10:20.003Z,28.53
2018-11-14T20:12:49.747Z,27.53
2018-11-14T20:15:19.883Z,28.73
2018-11-14T20:17:49.342Z,31.77
2018-11-14T20:20:19.733Z,34.10
2018-11-14T20:22:48.873Z,29.87
2018-11-14T20:25:17.737Z,29.50
2018-11-14T20:27:46.739Z,27.17
2018-11-14T20:30:21.575Z,28.63
2018-11-14T20:32:51.307Z,34.83
2018-11-14T20:35:21.264Z,28.47
2018-11-14T20:37:50.200Z,30.10
2018-11-14T20:40:20.584Z,26.90
2018-11-14T20:42:50.484Z,25.93
2018-11-14T20:45:23.763Z,28.23
2018-11-14T20:47:52.486Z,31.90
2018-11-14T20:50:22.450Z,29.77
2018-11-14T20:52:53.817Z,31.50
2018-11-14T20:55:22.910Z,29.20
2018-11-14T20:57:52.426Z,29.17
2018-11-14T21:00:25.598Z,31.33
2018-11-14T21:02:54.271Z,28.80
2018-11-14T21:05:23.738Z,28.77
2018-11-14T21:07:52.471Z,34.00
2018-11-14T21:10:23.873Z,29.77
2018-11-14T21:12:53.505Z,27.27
2018-11-14T21:15:23.780Z,31.23
2018-11-14T21:17:53.644Z,31.27
2018-11-14T21:20:22.399Z,32.67
2018-11-14T21:22:51.829Z,29.73
2018-11-14T21:25:21.787Z,31.43
2018-11-14T21:27:50.966Z,31.73
2018-11-14T21:30:20.966Z,32.23
2018-11-14T21:32:50.263Z,30.60
2018-11-14T21:35:22.438Z,31.43
2018-11-14T21:37:52.817Z,32.20
2018-11-14T21:40:22.031Z,29.17
2018-11-14T21:42:51.348Z,31.93
2018-11-14T21:45:21.888Z,29.50
2018-11-14T21:47:55.934Z,32.10
2018-11-14T21:50:26.111Z,32.53
2018-11-14T21:52:54.817Z,29.80
2018-11-14T21:55:24.087Z,34.03
2018-11-14T21:57:53.222Z,32.07
2018-11-14T22:00:23.874Z,34.70
2018-11-14T22:02:54.052Z,32.70
2018-11-14T22:05:23.438Z,33.53
2018-11-14T22:07:52.354Z,35.37
2018-11-14T22:10:22.675Z,30.13
2018-11-14T22:12:52.094Z,33.10
2018-11-14T22:15:22.376Z,31.97
2018-11-14T22:17:51.603Z,31.37
2018-11-14T22:20:21.875Z,27.73
2018-11-14T22:22:51.442Z,32.07
2018-11-14T22:25:21.386Z,31.90
2018-11-14T22:27:50.352Z,33.83
2018-11-14T22:30:22.689Z,33.67
2018-11-14T22:32:51.500Z,28.47
2018-11-14T22:35:21.589Z,36.60
2018-11-14T22:37:51.198Z,30.40
2018-11-14T22:40:21.489Z,37.67
2018-11-14T22:42:51.178Z,34.20
2018-11-14T22:45:22.239Z,34.90
2018-11-14T22:47:51.253Z,34.97
2018-11-14T22:50:21.790Z,31.53
2018-11-14T22:52:51.019Z,33.43
2018-11-14T22:55:20.786Z,31.73
2018-11-14T22:57:50.211Z,31.80
2018-11-14T23:00:22.708Z,33.80
2018-11-14T23:02:52.640Z,30.50
2018-11-14T23:05:22.155Z,31.83
2018-11-14T23:07:52.150Z,31.87
2018-11-14T23:10:22.063Z,41.50
2018-11-14T23:12:51.458Z,39.50
2018-11-14T23:15:21.063Z,38.77
2018-11-14T23:17:49.971Z,36.13
2018-11-14T23:20:19.649Z,39.87
2018-11-14T23:22:48.923Z,35.40
2018-11-14T23:25:18.845Z,36.63
2018-11-14T23:27:50.197Z,39.00
2018-11-14T23:30:19.803Z,36.47
2018-11-14T23:32:50.146Z,35.70
2018-11-14T23:35:26.650Z,38.53
2018-11-14T23:37:57.639Z,32.23
2018-11-14T23:40:27.150Z,42.33
2018-11-14T23:42:55.982Z,33.57
2018-11-14T23:45:25.590Z,37.67
2018-11-14T23:47:54.342Z,31.80
2018-11-14T23:50:25.351Z,39.07
2018-11-14T23:52:55.032Z,37.17
2018-11-14T23:55:24.314Z,31.50
2018-11-14T23:57:53.031Z,33.07
